Aviation Digital Data Service (ADDS)

Output produced by METARs form (2224 UTC 23 March 2019)
found at http://www.aviationweather.gov/metar/data/
 
Forecast for: FKKL (MAROUA SALAK , CM)
Text: TAF FKKL 231100Z 2312/2324 VRB08KT CAVOK
Forecast period: 1200 UTC 23 March 2019 to 0000 UTC 24 March 2019
Forecast type: FROM: standard forecast or significant change
Winds: variable direction winds at 9 MPH (8 knots; 4.1 m/s)
Visibility: 6 or more miles 10+ km)
Ceiling: unknown
Clouds: missing
Weather: NSW  (no significant weather)